sensor_id;sensor_type;location;lat;lon;timestamp;pressure;altitude;pressure_sealevel;temperature;humidity
11525;BME280;5819;49.648;8.330;2022-08-04T00:00:10;100004.81;;;25.16;54.92
11525;BME280;5819;49.648;8.330;2022-08-04T00:02:51;100005.00;;;25.14;54.90
11525;BME280;5819;49.648;8.330;2022-08-04T00:05:29;100001.97;;;25.01;55.20
11525;BME280;5819;49.648;8.330;2022-08-04T00:08:10;100006.97;;;24.96;55.55
11525;BME280;5819;49.648;8.330;2022-08-04T00:10:47;100011.44;;;25.04;54.49
11525;BME280;5819;49.648;8.330;2022-08-04T00:13:16;100011.63;;;25.02;54.43
11525;BME280;5819;49.648;8.330;2022-08-04T00:15:51;100009.81;;;24.95;54.66
11525;BME280;5819;49.648;8.330;2022-08-04T00:18:22;100011.63;;;24.86;54.91
11525;BME280;5819;49.648;8.330;2022-08-04T00:20:58;100017.59;;;24.88;54.45
11525;BME280;5819;49.648;8.330;2022-08-04T00:23:28;100022.88;;;24.80;54.30
11525;BME280;5819;49.648;8.330;2022-08-04T00:26:19;100008.91;;;24.70;55.12
11525;BME280;5819;49.648;8.330;2022-08-04T00:28:48;100000.63;;;24.15;57.21
11525;BME280;5819;49.648;8.330;2022-08-04T00:31:17;100005.06;;;23.81;58.31
11525;BME280;5819;49.648;8.330;2022-08-04T00:34:06;100005.78;;;23.91;58.00
11525;BME280;5819;49.648;8.330;2022-08-04T00:36:39;100009.06;;;23.85;58.94
11525;BME280;5819;49.648;8.330;2022-08-04T00:39:12;100008.97;;;23.94;58.63
11525;BME280;5819;49.648;8.330;2022-08-04T00:41:51;100003.97;;;23.91;59.20
11525;BME280;5819;49.648;8.330;2022-08-04T00:44:32;100006.84;;;24.06;59.10
11525;BME280;5819;49.648;8.330;2022-08-04T00:47:16;100010.16;;;24.08;58.66
11525;BME280;5819;49.648;8.330;2022-08-04T00:50:04;100006.69;;;24.07;58.97
11525;BME280;5819;49.648;8.330;2022-08-04T00:52:59;100007.09;;;24.20;58.65
11525;BME280;5819;49.648;8.330;2022-08-04T00:55:45;99998.50;;;24.27;58.18
11525;BME280;5819;49.648;8.330;2022-08-04T00:58:26;100006.16;;;24.38;57.51
11525;BME280;5819;49.648;8.330;2022-08-04T01:00:59;100001.53;;;24.48;56.75
11525;BME280;5819;49.648;8.330;2022-08-04T01:03:41;100008.53;;;24.57;55.88
11525;BME280;5819;49.648;8.330;2022-08-04T01:06:33;100014.56;;;24.59;55.84
11525;BME280;5819;49.648;8.330;2022-08-04T01:09:20;99997.41;;;24.61;55.53
11525;BME280;5819;49.648;8.330;2022-08-04T01:12:13;100004.44;;;24.70;55.50
11525;BME280;5819;49.648;8.330;2022-08-04T01:14:55;100003.91;;;24.59;55.67
11525;BME280;5819;49.648;8.330;2022-08-04T01:17:39;100005.25;;;24.63;55.45
11525;BME280;5819;49.648;8.330;2022-08-04T01:20:12;99999.75;;;24.64;55.53
11525;BME280;5819;49.648;8.330;2022-08-04T01:23:15;100001.25;;;24.59;55.87
11525;BME280;5819;49.648;8.330;2022-08-04T01:26:27;100009.50;;;24.48;55.27
11525;BME280;5819;49.648;8.330;2022-08-04T01:29:12;100004.84;;;24.42;55.59
11525;BME280;5819;49.648;8.330;2022-08-04T01:31:49;99991.06;;;24.46;55.57
11525;BME280;5819;49.648;8.330;2022-08-04T01:34:22;99996.19;;;24.40;55.86
11525;BME280;5819;49.648;8.330;2022-08-04T01:36:58;99991.69;;;24.32;55.57
11525;BME280;5819;49.648;8.330;2022-08-04T01:39:33;99991.88;;;24.31;55.73
11525;BME280;5819;49.648;8.330;2022-08-04T01:42:08;99994.00;;;24.19;55.90
11525;BME280;5819;49.648;8.330;2022-08-04T01:44:40;99987.16;;;24.16;55.92
11525;BME280;5819;49.648;8.330;2022-08-04T01:47:08;99987.09;;;24.08;56.09
11525;BME280;5819;49.648;8.330;2022-08-04T01:49:37;99988.91;;;24.08;56.26
11525;BME280;5819;49.648;8.330;2022-08-04T01:52:08;99986.88;;;23.94;56.70
11525;BME280;5819;49.648;8.330;2022-08-04T01:54:40;99987.03;;;23.92;56.51
11525;BME280;5819;49.648;8.330;2022-08-04T01:57:09;99987.75;;;23.43;59.18
11525;BME280;5819;49.648;8.330;2022-08-04T01:59:59;99982.69;;;23.14;60.12
11525;BME280;5819;49.648;8.330;2022-08-04T02:02:29;99986.19;;;22.97;60.66
11525;BME280;5819;49.648;8.330;2022-08-04T02:04:58;99983.53;;;23.14;60.32
11525;BME280;5819;49.648;8.330;2022-08-04T02:07:43;99985.31;;;23.31;59.67
11525;BME280;5819;49.648;8.330;2022-08-04T02:10:22;99985.00;;;23.35;59.55
11525;BME280;5819;49.648;8.330;2022-08-04T02:13:03;99983.47;;;23.32;59.29
11525;BME280;5819;49.648;8.330;2022-08-04T02:15:49;99982.50;;;23.33;59.30
11525;BME280;5819;49.648;8.330;2022-08-04T02:18:23;99980.00;;;23.31;59.42
11525;BME280;5819;49.648;8.330;2022-08-04T02:20:56;99983.63;;;23.05;60.85
11525;BME280;5819;49.648;8.330;2022-08-04T02:23:29;99983.94;;;23.02;61.20
11525;BME280;5819;49.648;8.330;2022-08-04T02:26:00;99984.63;;;22.86;61.37
11525;BME280;5819;49.648;8.330;2022-08-04T02:28:33;99979.91;;;22.80;61.66
11525;BME280;5819;49.648;8.330;2022-08-04T02:31:13;99982.25;;;22.83;61.63
11525;BME280;5819;49.648;8.330;2022-08-04T02:33:53;99978.38;;;22.95;60.85
11525;BME280;5819;49.648;8.330;2022-08-04T02:36:27;99975.66;;;23.05;61.02
11525;BME280;5819;49.648;8.330;2022-08-04T02:38:59;99979.16;;;23.05;60.79
11525;BME280;5819;49.648;8.330;2022-08-04T02:41:28;99977.72;;;22.93;60.74
11525;BME280;5819;49.648;8.330;2022-08-04T02:43:58;99978.25;;;22.79;61.67
11525;BME280;5819;49.648;8.330;2022-08-04T02:46:29;99979.25;;;22.78;61.78
11525;BME280;5819;49.648;8.330;2022-08-04T02:49:00;99979.06;;;22.79;61.38
11525;BME280;5819;49.648;8.330;2022-08-04T02:51:32;99984.00;;;22.92;60.80
11525;BME280;5819;49.648;8.330;2022-08-04T02:54:04;99976.19;;;23.08;60.30
11525;BME280;5819;49.648;8.330;2022-08-04T02:56:38;99987.41;;;23.02;59.99
11525;BME280;5819;49.648;8.330;2022-08-04T02:59:07;99984.78;;;23.02;59.64
11525;BME280;5819;49.648;8.330;2022-08-04T03:01:39;99980.44;;;22.66;61.32
11525;BME280;5819;49.648;8.330;2022-08-04T03:04:42;99986.75;;;22.37;62.40
11525;BME280;5819;49.648;8.330;2022-08-04T03:07:37;99976.66;;;22.23;62.91
11525;BME280;5819;49.648;8.330;2022-08-04T03:10:21;99977.94;;;22.19;63.21
11525;BME280;5819;49.648;8.330;2022-08-04T03:13:23;99980.13;;;22.24;62.91
11525;BME280;5819;49.648;8.330;2022-08-04T03:16:14;99978.28;;;22.34;62.52
11525;BME280;5819;49.648;8.330;2022-08-04T03:19:20;99978.81;;;22.37;62.11
11525;BME280;5819;49.648;8.330;2022-08-04T03:22:21;99978.72;;;22.47;61.60
11525;BME280;5819;49.648;8.330;2022-08-04T03:28:23;99987.56;;;22.83;59.93
11525;BME280;5819;49.648;8.330;2022-08-04T03:31:14;99986.59;;;22.84;60.11
11525;BME280;5819;49.648;8.330;2022-08-04T03:33:59;99998.66;;;22.78;60.05
11525;BME280;5819;49.648;8.330;2022-08-04T03:36:53;99993.50;;;22.67;60.66
11525;BME280;5819;49.648;8.330;2022-08-04T03:42:49;99989.88;;;22.51;61.26
11525;BME280;5819;49.648;8.330;2022-08-04T03:46:00;99990.03;;;22.67;60.92
11525;BME280;5819;49.648;8.330;2022-08-04T03:48:50;99992.56;;;22.68;61.08
11525;BME280;5819;49.648;8.330;2022-08-04T03:51:36;99994.66;;;22.65;60.31
11525;BME280;5819;49.648;8.330;2022-08-04T03:54:38;99990.44;;;22.54;60.55
11525;BME280;5819;49.648;8.330;2022-08-04T03:57:31;99988.59;;;22.55;60.50
11525;BME280;5819;49.648;8.330;2022-08-04T04:00:06;99996.09;;;22.42;61.18
11525;BME280;5819;49.648;8.330;2022-08-04T04:03:07;99988.97;;;22.42;60.89
11525;BME280;5819;49.648;8.330;2022-08-04T04:06:34;99994.94;;;22.44;60.97
11525;BME280;5819;49.648;8.330;2022-08-04T04:09:26;99990.63;;;22.43;60.81
11525;BME280;5819;49.648;8.330;2022-08-04T04:12:32;100001.53;;;22.40;60.92
11525;BME280;5819;49.648;8.330;2022-08-04T04:15:18;99998.84;;;22.22;61.62
11525;BME280;5819;49.648;8.330;2022-08-04T04:18:12;99996.03;;;21.97;62.82
11525;BME280;5819;49.648;8.330;2022-08-04T04:21:20;100003.31;;;22.22;62.50
11525;BME280;5819;49.648;8.330;2022-08-04T04:24:32;100003.22;;;22.14;61.50
11525;BME280;5819;49.648;8.330;2022-08-04T04:27:08;99998.94;;;22.03;62.26
11525;BME280;5819;49.648;8.330;2022-08-04T04:30:01;100006.53;;;22.16;62.12
11525;BME280;5819;49.648;8.330;2022-08-04T04:32:42;100005.44;;;22.18;62.04
11525;BME280;5819;49.648;8.330;2022-08-04T04:35:25;100003.00;;;21.98;63.25
11525;BME280;5819;49.648;8.330;2022-08-04T04:38:20;100009.25;;;22.33;62.40
11525;BME280;5819;49.648;8.330;2022-08-04T04:41:04;100009.34;;;22.14;62.27
11525;BME280;5819;49.648;8.330;2022-08-04T04:43:47;100014.94;;;22.11;62.45
11525;BME280;5819;49.648;8.330;2022-08-04T04:46:31;100015.53;;;22.05;62.79
11525;BME280;5819;49.648;8.330;2022-08-04T04:49:10;100011.47;;;21.64;65.02
11525;BME280;5819;49.648;8.330;2022-08-04T04:51:42;100009.03;;;21.80;64.99
11525;BME280;5819;49.648;8.330;2022-08-04T04:54:20;100010.66;;;21.91;63.41
11525;BME280;5819;49.648;8.330;2022-08-04T04:57:10;100007.53;;;21.78;64.20
11525;BME280;5819;49.648;8.330;2022-08-04T04:59:44;100012.47;;;22.00;63.59
11525;BME280;5819;49.648;8.330;2022-08-04T05:02:28;100011.28;;;22.22;63.23
11525;BME280;5819;49.648;8.330;2022-08-04T05:08:26;100011.91;;;22.33;63.27
11525;BME280;5819;49.648;8.330;2022-08-04T05:14:28;100005.63;;;22.34;64.18
11525;BME280;5819;49.648;8.330;2022-08-04T05:17:14;100010.53;;;22.47;64.23
11525;BME280;5819;49.648;8.330;2022-08-04T05:19:51;100015.34;;;22.61;64.18
11525;BME280;5819;49.648;8.330;2022-08-04T05:22:24;100022.69;;;22.67;63.92
11525;BME280;5819;49.648;8.330;2022-08-04T05:25:02;100019.88;;;22.78;64.16
11525;BME280;5819;49.648;8.330;2022-08-04T05:27:38;100024.03;;;22.81;64.68
11525;BME280;5819;49.648;8.330;2022-08-04T05:30:08;100021.31;;;22.91;64.55
11525;BME280;5819;49.648;8.330;2022-08-04T05:32:45;100018.56;;;23.00;64.16
11525;BME280;5819;49.648;8.330;2022-08-04T05:35:21;100018.63;;;23.08;64.00
11525;BME280;5819;49.648;8.330;2022-08-04T05:38:17;100023.88;;;23.18;63.45
11525;BME280;5819;49.648;8.330;2022-08-04T05:40:48;100025.66;;;23.35;63.17
11525;BME280;5819;49.648;8.330;2022-08-04T05:43:18;100023.91;;;23.44;62.92
11525;BME280;5819;49.648;8.330;2022-08-04T05:45:48;100027.84;;;23.57;62.49
11525;BME280;5819;49.648;8.330;2022-08-04T05:48:20;100018.44;;;23.63;61.99
11525;BME280;5819;49.648;8.330;2022-08-04T05:50:50;100022.06;;;23.62;62.18
11525;BME280;5819;49.648;8.330;2022-08-04T05:53:27;100023.41;;;23.66;61.94
11525;BME280;5819;49.648;8.330;2022-08-04T05:55:55;100029.91;;;23.71;61.59
11525;BME280;5819;49.648;8.330;2022-08-04T05:58:27;100035.78;;;23.75;61.14
11525;BME280;5819;49.648;8.330;2022-08-04T06:00:57;100036.81;;;23.82;61.38
11525;BME280;5819;49.648;8.330;2022-08-04T06:03:28;100033.50;;;23.88;61.87
11525;BME280;5819;49.648;8.330;2022-08-04T06:05:59;100031.53;;;23.90;60.26
11525;BME280;5819;49.648;8.330;2022-08-04T06:08:29;100023.75;;;23.97;59.71
11525;BME280;5819;49.648;8.330;2022-08-04T06:11:01;100023.28;;;24.01;60.07
11525;BME280;5819;49.648;8.330;2022-08-04T06:13:43;100029.97;;;24.13;59.58
11525;BME280;5819;49.648;8.330;2022-08-04T06:16:18;100023.78;;;24.31;59.34
11525;BME280;5819;49.648;8.330;2022-08-04T06:18:55;100024.78;;;24.38;59.70
11525;BME280;5819;49.648;8.330;2022-08-04T06:21:50;100027.47;;;24.46;58.47
11525;BME280;5819;49.648;8.330;2022-08-04T06:24:21;100027.16;;;24.57;57.83
11525;BME280;5819;49.648;8.330;2022-08-04T06:26:52;100022.84;;;24.64;58.00
11525;BME280;5819;49.648;8.330;2022-08-04T06:29:22;100032.03;;;24.69;58.07
11525;BME280;5819;49.648;8.330;2022-08-04T06:31:56;100030.34;;;24.68;59.45
11525;BME280;5819;49.648;8.330;2022-08-04T06:34:45;100030.84;;;24.72;59.00
11525;BME280;5819;49.648;8.330;2022-08-04T06:37:16;100032.53;;;24.81;58.71
11525;BME280;5819;49.648;8.330;2022-08-04T06:40:06;100034.03;;;24.84;59.13
11525;BME280;5819;49.648;8.330;2022-08-04T06:42:56;100044.66;;;24.84;59.44
11525;BME280;5819;49.648;8.330;2022-08-04T06:45:30;100043.03;;;24.83;60.04
11525;BME280;5819;49.648;8.330;2022-08-04T06:48:01;100043.88;;;24.83;59.59
11525;BME280;5819;49.648;8.330;2022-08-04T06:50:30;100038.06;;;24.96;58.46
11525;BME280;5819;49.648;8.330;2022-08-04T06:53:21;100040.91;;;25.02;59.34
11525;BME280;5819;49.648;8.330;2022-08-04T06:55:49;100037.94;;;25.22;57.06
11525;BME280;5819;49.648;8.330;2022-08-04T06:58:19;100041.91;;;25.17;56.92
11525;BME280;5819;49.648;8.330;2022-08-04T07:00:48;100048.72;;;25.44;56.19
11525;BME280;5819;49.648;8.330;2022-08-04T07:03:18;100041.09;;;25.41;56.61
11525;BME280;5819;49.648;8.330;2022-08-04T07:05:48;100032.59;;;25.46;56.28
11525;BME280;5819;49.648;8.330;2022-08-04T07:08:25;100040.09;;;25.58;56.56
11525;BME280;5819;49.648;8.330;2022-08-04T07:10:56;100041.75;;;25.68;56.47
11525;BME280;5819;49.648;8.330;2022-08-04T07:13:25;100044.91;;;25.79;54.29
11525;BME280;5819;49.648;8.330;2022-08-04T07:15:55;100037.03;;;25.86;53.69
11525;BME280;5819;49.648;8.330;2022-08-04T07:18:26;100036.00;;;26.03;52.35
11525;BME280;5819;49.648;8.330;2022-08-04T07:20:54;100034.16;;;26.20;52.58
11525;BME280;5819;49.648;8.330;2022-08-04T07:23:23;100030.44;;;26.21;53.55
11525;BME280;5819;49.648;8.330;2022-08-04T07:25:55;100037.38;;;26.38;52.92
11525;BME280;5819;49.648;8.330;2022-08-04T07:28:39;100037.66;;;26.51;52.25
11525;BME280;5819;49.648;8.330;2022-08-04T07:31:14;100036.84;;;26.73;51.61
11525;BME280;5819;49.648;8.330;2022-08-04T07:34:01;100042.25;;;26.96;51.22
11525;BME280;5819;49.648;8.330;2022-08-04T07:36:49;100032.19;;;27.21;49.83
11525;BME280;5819;49.648;8.330;2022-08-04T07:39:23;100031.09;;;27.15;50.16
11525;BME280;5819;49.648;8.330;2022-08-04T07:41:56;100030.28;;;27.29;50.05
11525;BME280;5819;49.648;8.330;2022-08-04T07:44:28;100031.03;;;27.38;49.74
11525;BME280;5819;49.648;8.330;2022-08-04T07:46:57;100033.44;;;27.56;49.20
11525;BME280;5819;49.648;8.330;2022-08-04T07:49:25;100026.34;;;27.63;49.38
11525;BME280;5819;49.648;8.330;2022-08-04T07:52:14;100024.97;;;27.67;49.39
11525;BME280;5819;49.648;8.330;2022-08-04T07:54:42;100028.38;;;27.75;48.93
11525;BME280;5819;49.648;8.330;2022-08-04T07:57:12;100024.69;;;27.91;49.15
11525;BME280;5819;49.648;8.330;2022-08-04T08:00:01;100026.81;;;27.96;49.40
11525;BME280;5819;49.648;8.330;2022-08-04T08:02:37;100025.88;;;28.03;48.41
11525;BME280;5819;49.648;8.330;2022-08-04T08:05:07;100026.56;;;28.20;48.41
11525;BME280;5819;49.648;8.330;2022-08-04T08:07:37;100024.44;;;28.15;48.71
11525;BME280;5819;49.648;8.330;2022-08-04T08:10:20;100027.84;;;28.24;47.62
11525;BME280;5819;49.648;8.330;2022-08-04T08:12:51;100025.41;;;28.29;47.59
11525;BME280;5819;49.648;8.330;2022-08-04T08:15:20;100023.13;;;28.26;48.88
11525;BME280;5819;49.648;8.330;2022-08-04T08:17:49;100021.00;;;28.36;48.99
11525;BME280;5819;49.648;8.330;2022-08-04T08:20:30;100023.47;;;28.52;48.15
11525;BME280;5819;49.648;8.330;2022-08-04T08:22:59;100018.34;;;28.57;47.98
11525;BME280;5819;49.648;8.330;2022-08-04T08:25:29;100020.13;;;28.50;48.18
11525;BME280;5819;49.648;8.330;2022-08-04T08:28:01;100017.22;;;28.66;48.58
11525;BME280;5819;49.648;8.330;2022-08-04T08:30:31;100015.44;;;28.88;47.39
11525;BME280;5819;49.648;8.330;2022-08-04T08:33:01;100016.34;;;29.23;46.64
11525;BME280;5819;49.648;8.330;2022-08-04T08:35:38;100015.16;;;29.04;47.00
11525;BME280;5819;49.648;8.330;2022-08-04T08:38:27;100012.13;;;29.14;47.93
11525;BME280;5819;49.648;8.330;2022-08-04T08:41:20;100016.78;;;29.26;47.43
11525;BME280;5819;49.648;8.330;2022-08-04T08:44:03;100013.38;;;29.60;47.02
11525;BME280;5819;49.648;8.330;2022-08-04T08:47:08;100010.28;;;29.57;46.70
11525;BME280;5819;49.648;8.330;2022-08-04T08:50:01;100003.53;;;29.67;46.37
11525;BME280;5819;49.648;8.330;2022-08-04T08:52:55;100005.13;;;29.62;46.56
11525;BME280;5819;49.648;8.330;2022-08-04T08:55:39;100011.81;;;29.72;46.66
11525;BME280;5819;49.648;8.330;2022-08-04T08:58:28;100015.25;;;29.94;45.95
11525;BME280;5819;49.648;8.330;2022-08-04T09:01:08;100013.94;;;30.18;45.36
11525;BME280;5819;49.648;8.330;2022-08-04T09:04:17;100009.63;;;30.24;45.29
11525;BME280;5819;49.648;8.330;2022-08-04T09:07:09;100010.69;;;30.29;45.49
11525;BME280;5819;49.648;8.330;2022-08-04T09:09:50;100012.38;;;30.37;45.96
11525;BME280;5819;49.648;8.330;2022-08-04T09:12:26;100013.31;;;30.70;44.61
11525;BME280;5819;49.648;8.330;2022-08-04T09:15:04;100012.06;;;30.59;44.45
11525;BME280;5819;49.648;8.330;2022-08-04T09:17:42;100006.06;;;30.64;44.68
11525;BME280;5819;49.648;8.330;2022-08-04T09:20:20;100008.00;;;30.96;43.91
11525;BME280;5819;49.648;8.330;2022-08-04T09:23:03;100008.84;;;31.10;43.64
11525;BME280;5819;49.648;8.330;2022-08-04T09:25:38;100013.97;;;30.98;44.13
11525;BME280;5819;49.648;8.330;2022-08-04T09:28:18;100007.22;;;31.55;42.75
11525;BME280;5819;49.648;8.330;2022-08-04T09:31:10;100017.50;;;31.84;42.79
11525;BME280;5819;49.648;8.330;2022-08-04T09:33:48;100016.41;;;31.98;42.55
11525;BME280;5819;49.648;8.330;2022-08-04T09:36:27;100014.75;;;32.11;42.45
11525;BME280;5819;49.648;8.330;2022-08-04T09:39:05;100002.91;;;32.25;42.22
11525;BME280;5819;49.648;8.330;2022-08-04T09:41:40;100008.94;;;32.65;40.42
11525;BME280;5819;49.648;8.330;2022-08-04T09:44:25;100008.91;;;32.71;39.88
11525;BME280;5819;49.648;8.330;2022-08-04T09:47:19;100007.53;;;32.87;39.76
11525;BME280;5819;49.648;8.330;2022-08-04T09:50:15;100007.78;;;33.10;39.30
11525;BME280;5819;49.648;8.330;2022-08-04T09:52:57;100002.00;;;33.38;39.14
11525;BME280;5819;49.648;8.330;2022-08-04T09:55:40;100004.72;;;33.81;38.54
11525;BME280;5819;49.648;8.330;2022-08-04T09:58:32;100004.72;;;34.17;38.40
11525;BME280;5819;49.648;8.330;2022-08-04T10:01:09;100001.78;;;34.67;37.35
11525;BME280;5819;49.648;8.330;2022-08-04T10:03:42;99997.88;;;35.04;36.37
11525;BME280;5819;49.648;8.330;2022-08-04T10:06:31;99986.50;;;36.47;35.18
11525;BME280;5819;49.648;8.330;2022-08-04T10:09:13;99992.63;;;38.31;32.00
11525;BME280;5819;49.648;8.330;2022-08-04T10:11:54;99978.22;;;40.05;30.18
11525;BME280;5819;49.648;8.330;2022-08-04T10:14:36;99980.59;;;41.65;27.50
11525;BME280;5819;49.648;8.330;2022-08-04T10:17:36;99974.69;;;42.94;26.11
11525;BME280;5819;49.648;8.330;2022-08-04T10:20:22;99976.59;;;43.80;25.11
11525;BME280;5819;49.648;8.330;2022-08-04T10:23:19;99986.34;;;43.39;25.23
11525;BME280;5819;49.648;8.330;2022-08-04T10:26:01;99970.78;;;42.18;25.28
11525;BME280;5819;49.648;8.330;2022-08-04T10:28:40;99972.56;;;41.93;26.14
11525;BME280;5819;49.648;8.330;2022-08-04T10:31:16;99970.28;;;41.01;27.25
11525;BME280;5819;49.648;8.330;2022-08-04T10:33:50;99973.53;;;41.18;27.55
11525;BME280;5819;49.648;8.330;2022-08-04T10:36:22;99966.47;;;41.12;27.38
11525;BME280;5819;49.648;8.330;2022-08-04T10:39:01;99973.25;;;40.64;27.89
11525;BME280;5819;49.648;8.330;2022-08-04T10:41:34;99969.22;;;39.99;29.15
11525;BME280;5819;49.648;8.330;2022-08-04T10:44:16;99964.41;;;38.59;30.15
11525;BME280;5819;49.648;8.330;2022-08-04T10:46:53;99959.25;;;38.62;30.40
11525;BME280;5819;49.648;8.330;2022-08-04T10:49:27;99968.31;;;38.19;30.15
11525;BME280;5819;49.648;8.330;2022-08-04T10:52:02;99963.56;;;38.58;29.58
11525;BME280;5819;49.648;8.330;2022-08-04T10:54:40;99962.97;;;38.83;29.61
11525;BME280;5819;49.648;8.330;2022-08-04T10:57:20;99948.59;;;39.61;28.50
11525;BME280;5819;49.648;8.330;2022-08-04T10:59:56;99949.72;;;40.38;27.41
11525;BME280;5819;49.648;8.330;2022-08-04T11:02:36;99947.00;;;40.38;27.74
11525;BME280;5819;49.648;8.330;2022-08-04T11:05:22;99941.56;;;40.43;26.87
11525;BME280;5819;49.648;8.330;2022-08-04T11:07:55;99947.34;;;40.87;26.79
11525;BME280;5819;49.648;8.330;2022-08-04T11:10:29;99941.84;;;41.22;26.78
11525;BME280;5819;49.648;8.330;2022-08-04T11:13:05;99943.69;;;42.31;26.08
11525;BME280;5819;49.648;8.330;2022-08-04T11:15:55;99942.31;;;43.30;24.41
11525;BME280;5819;49.648;8.330;2022-08-04T11:18:30;99940.97;;;44.42;22.84
11525;BME280;5819;49.648;8.330;2022-08-04T11:21:08;99934.59;;;44.79;22.42
11525;BME280;5819;49.648;8.330;2022-08-04T11:23:43;99932.69;;;44.04;22.42
11525;BME280;5819;49.648;8.330;2022-08-04T11:26:20;99936.03;;;44.20;22.11
11525;BME280;5819;49.648;8.330;2022-08-04T11:28:57;99929.09;;;44.27;23.13
11525;BME280;5819;49.648;8.330;2022-08-04T11:31:31;99935.78;;;44.21;23.11
11525;BME280;5819;49.648;8.330;2022-08-04T11:34:03;99931.44;;;45.04;22.58
11525;BME280;5819;49.648;8.330;2022-08-04T11:36:36;99923.41;;;45.35;22.91
11525;BME280;5819;49.648;8.330;2022-08-04T11:39:09;99928.13;;;44.37;22.80
11525;BME280;5819;49.648;8.330;2022-08-04T11:41:47;99920.25;;;43.93;23.63
11525;BME280;5819;49.648;8.330;2022-08-04T11:44:19;99920.69;;;44.00;23.10
11525;BME280;5819;49.648;8.330;2022-08-04T11:46:50;99910.38;;;43.92;23.73
11525;BME280;5819;49.648;8.330;2022-08-04T11:49:27;99919.25;;;41.91;25.12
11525;BME280;5819;49.648;8.330;2022-08-04T11:51:57;99923.47;;;42.17;25.03
11525;BME280;5819;49.648;8.330;2022-08-04T11:54:27;99911.31;;;43.35;23.98
11525;BME280;5819;49.648;8.330;2022-08-04T11:56:56;99925.69;;;43.22;23.97
11525;BME280;5819;49.648;8.330;2022-08-04T11:59:26;99917.91;;;42.37;24.42
11525;BME280;5819;49.648;8.330;2022-08-04T12:02:09;99915.50;;;41.72;25.30
11525;BME280;5819;49.648;8.330;2022-08-04T12:04:54;99919.06;;;42.26;24.05
11525;BME280;5819;49.648;8.330;2022-08-04T12:07:33;99912.34;;;43.44;24.01
11525;BME280;5819;49.648;8.330;2022-08-04T12:10:17;99906.44;;;43.98;22.62
11525;BME280;5819;49.648;8.330;2022-08-04T12:13:17;99905.63;;;44.16;22.53
11525;BME280;5819;49.648;8.330;2022-08-04T12:15:54;99902.00;;;43.78;22.86
11525;BME280;5819;49.648;8.330;2022-08-04T12:18:32;99900.34;;;43.11;23.05
11525;BME280;5819;49.648;8.330;2022-08-04T12:21:06;99901.31;;;42.19;24.13
11525;BME280;5819;49.648;8.330;2022-08-04T12:23:42;99902.97;;;42.20;23.85
11525;BME280;5819;49.648;8.330;2022-08-04T12:26:16;99898.72;;;41.93;24.17
11525;BME280;5819;49.648;8.330;2022-08-04T12:28:50;99893.88;;;41.80;24.78
11525;BME280;5819;49.648;8.330;2022-08-04T12:31:43;99889.91;;;42.84;24.32
11525;BME280;5819;49.648;8.330;2022-08-04T12:34:15;99893.06;;;43.73;23.06
11525;BME280;5819;49.648;8.330;2022-08-04T12:36:53;99887.75;;;42.03;23.74
11525;BME280;5819;49.648;8.330;2022-08-04T12:39:24;99875.38;;;42.16;24.83
11525;BME280;5819;49.648;8.330;2022-08-04T12:41:59;99875.84;;;43.49;23.86
11525;BME280;5819;49.648;8.330;2022-08-04T12:44:37;99872.34;;;43.86;23.06
11525;BME280;5819;49.648;8.330;2022-08-04T12:47:07;99874.28;;;43.85;23.68
11525;BME280;5819;49.648;8.330;2022-08-04T12:50:00;99874.78;;;43.87;22.78
11525;BME280;5819;49.648;8.330;2022-08-04T12:52:32;99870.84;;;42.98;23.63
11525;BME280;5819;49.648;8.330;2022-08-04T12:55:27;99865.34;;;43.03;23.69
11525;BME280;5819;49.648;8.330;2022-08-04T12:57:56;99872.50;;;42.36;23.82
11525;BME280;5819;49.648;8.330;2022-08-04T13:00:28;99871.47;;;40.74;24.89
11525;BME280;5819;49.648;8.330;2022-08-04T13:03:09;99877.25;;;41.67;25.46
11525;BME280;5819;49.648;8.330;2022-08-04T13:05:39;99868.84;;;42.46;24.78
11525;BME280;5819;49.648;8.330;2022-08-04T13:08:10;99863.28;;;42.22;23.73
11525;BME280;5819;49.648;8.330;2022-08-04T13:10:40;99861.69;;;41.62;24.85
11525;BME280;5819;49.648;8.330;2022-08-04T13:13:15;99861.44;;;41.64;24.98
11525;BME280;5819;49.648;8.330;2022-08-04T13:15:55;99859.97;;;41.12;25.82
11525;BME280;5819;49.648;8.330;2022-08-04T13:18:26;99851.97;;;41.36;25.44
11525;BME280;5819;49.648;8.330;2022-08-04T13:21:10;99854.69;;;41.36;25.17
11525;BME280;5819;49.648;8.330;2022-08-04T13:23:48;99850.97;;;41.11;25.29
11525;BME280;5819;49.648;8.330;2022-08-04T13:26:45;99844.97;;;41.04;25.69
11525;BME280;5819;49.648;8.330;2022-08-04T13:29:23;99839.53;;;41.04;25.07
11525;BME280;5819;49.648;8.330;2022-08-04T13:32:17;99838.69;;;41.04;24.44
11525;BME280;5819;49.648;8.330;2022-08-04T13:34:51;99825.81;;;41.20;25.84
11525;BME280;5819;49.648;8.330;2022-08-04T13:37:24;99821.47;;;40.93;24.84
11525;BME280;5819;49.648;8.330;2022-08-04T13:39:54;99816.88;;;40.74;25.59
11525;BME280;5819;49.648;8.330;2022-08-04T13:42:25;99816.63;;;40.30;24.77
11525;BME280;5819;49.648;8.330;2022-08-04T13:44:57;99818.25;;;40.51;25.63
11525;BME280;5819;49.648;8.330;2022-08-04T13:47:30;99810.06;;;40.56;26.36
11525;BME280;5819;49.648;8.330;2022-08-04T13:50:07;99808.72;;;40.28;27.09
11525;BME280;5819;49.648;8.330;2022-08-04T13:52:38;99812.81;;;40.26;26.39
11525;BME280;5819;49.648;8.330;2022-08-04T13:55:08;99812.25;;;40.18;26.14
11525;BME280;5819;49.648;8.330;2022-08-04T13:57:46;99811.41;;;39.88;25.37
11525;BME280;5819;49.648;8.330;2022-08-04T14:00:17;99809.22;;;39.95;26.51
11525;BME280;5819;49.648;8.330;2022-08-04T14:03:03;99798.44;;;39.43;25.61
11525;BME280;5819;49.648;8.330;2022-08-04T14:06:23;99798.75;;;39.51;25.65
11525;BME280;5819;49.648;8.330;2022-08-04T14:08:54;99803.03;;;39.37;26.09
11525;BME280;5819;49.648;8.330;2022-08-04T14:11:31;99796.38;;;39.13;26.60
11525;BME280;5819;49.648;8.330;2022-08-04T14:14:22;99807.03;;;39.19;26.04
11525;BME280;5819;49.648;8.330;2022-08-04T14:16:59;99798.25;;;39.07;25.22
11525;BME280;5819;49.648;8.330;2022-08-04T14:19:47;99792.03;;;39.17;26.15
11525;BME280;5819;49.648;8.330;2022-08-04T14:22:31;99787.28;;;39.44;25.48